createdAt,value
2024-01-15T07:03:34.543Z,25.32
2024-01-15T07:06:02.857Z,25.61
2024-01-15T07:08:31.194Z,25.70
2024-01-15T07:10:59.277Z,25.34
2024-01-15T07:13:27.340Z,25.36
2024-01-15T07:15:55.588Z,25.62
2024-01-15T07:18:24.708Z,25.49
2024-01-15T07:20:54.295Z,25.96
2024-01-15T07:23:22.413Z,25.96
2024-01-15T07:25:50.463Z,25.66
2024-01-15T07:28:18.593Z,25.49
2024-01-15T07:30:46.758Z,25.44
2024-01-15T07:33:15.115Z,25.68
2024-01-15T07:35:43.329Z,25.39
2024-01-15T07:38:12.986Z,25.40
2024-01-15T07:40:41.278Z,25.68
2024-01-15T07:43:09.383Z,25.39
2024-01-15T07:45:37.699Z,25.47
2024-01-15T07:48:06.554Z,24.91
2024-01-15T07:50:34.715Z,25.23
2024-01-15T07:53:02.950Z,25.11
2024-01-15T07:55:33.043Z,24.77
2024-01-15T07:58:11.203Z,24.37
2024-01-15T08:00:43.866Z,24.76
2024-01-15T08:03:12.888Z,25.12
2024-01-15T08:05:41.050Z,24.81
2024-01-15T08:08:09.137Z,24.52
2024-01-15T08:10:38.594Z,24.69
2024-01-15T08:13:09.083Z,25.02
2024-01-15T08:15:37.456Z,24.57
2024-01-15T08:18:05.918Z,24.56
2024-01-15T08:20:34.156Z,24.22
2024-01-15T08:23:02.258Z,24.22
2024-01-15T08:25:30.428Z,24.94
2024-01-15T08:28:00.049Z,24.49
2024-01-15T08:30:29.176Z,24.67
2024-01-15T08:33:02.341Z,24.63
2024-01-15T08:35:36.567Z,24.26
2024-01-15T08:38:04.956Z,24.77
2024-01-15T08:40:33.034Z,24.24
2024-01-15T08:43:03.265Z,24.53
2024-01-15T08:45:32.373Z,24.16
2024-01-15T08:48:01.460Z,24.81
2024-01-15T08:50:29.603Z,24.54
2024-01-15T08:52:57.757Z,24.19
2024-01-15T08:55:25.914Z,24.34
2024-01-15T08:57:54.127Z,24.71
2024-01-15T09:00:23.748Z,24.47
2024-01-15T09:02:51.828Z,24.40
2024-01-15T09:05:20.118Z,24.19
2024-01-15T09:07:48.751Z,24.51
2024-01-15T09:10:17.459Z,24.43
2024-01-15T09:12:45.612Z,23.83
2024-01-15T09:15:13.804Z,24.01
2024-01-15T09:17:43.900Z,24.54
2024-01-15T09:20:12.603Z,24.29
2024-01-15T09:22:41.776Z,24.07
2024-01-15T09:25:10.924Z,24.47
2024-01-15T09:27:39.282Z,24.10
2024-01-15T09:30:09.554Z,24.00
2024-01-15T09:32:38.033Z,23.78
2024-01-15T09:35:08.702Z,24.31
2024-01-15T09:37:44.706Z,23.99
2024-01-15T09:40:16.984Z,23.95
2024-01-15T09:42:45.700Z,24.30
2024-01-15T09:45:14.133Z,24.30
2024-01-15T09:47:45.433Z,24.02
2024-01-15T09:50:17.217Z,24.18
2024-01-15T09:52:54.685Z,24.29
2024-01-15T09:55:22.758Z,24.31
2024-01-15T09:57:51.447Z,24.39
2024-01-15T10:00:21.118Z,24.28
2024-01-15T10:02:49.276Z,24.60
2024-01-15T10:05:18.812Z,24.01
2024-01-15T10:07:46.899Z,24.00
2024-01-15T10:10:15.245Z,24.42
2024-01-15T10:12:43.372Z,24.66
2024-01-15T10:15:12.739Z,24.35
2024-01-15T10:17:41.139Z,24.35
2024-01-15T10:20:12.068Z,24.92
2024-01-15T10:22:43.045Z,24.50
2024-01-15T10:25:13.009Z,25.40
2024-01-15T10:27:41.333Z,24.97
2024-01-15T10:30:10.439Z,25.66
2024-01-15T10:32:38.673Z,24.87
2024-01-15T10:35:07.430Z,25.29
2024-01-15T10:37:35.728Z,25.08
2024-01-15T10:40:07.337Z,25.27
2024-01-15T10:42:35.650Z,25.32
2024-01-15T10:45:03.787Z,25.32
2024-01-15T10:47:31.932Z,24.87
2024-01-15T10:50:00.727Z,25.52
2024-01-15T10:52:29.287Z,25.29
2024-01-15T10:54:57.686Z,25.27
2024-01-15T10:57:27.230Z,25.19
2024-01-15T10:59:55.405Z,24.73
2024-01-15T11:02:23.673Z,25.43
2024-01-15T11:04:51.930Z,25.42
2024-01-15T11:07:20.169Z,25.06
2024-01-15T11:09:48.691Z,25.07
2024-01-15T11:12:18.562Z,24.68
2024-01-15T11:14:49.912Z,25.49
2024-01-15T11:17:18.634Z,25.42
2024-01-15T11:19:47.666Z,25.05
2024-01-15T11:22:45.741Z,25.01
2024-01-15T11:25:15.517Z,25.42
2024-01-15T11:27:44.327Z,25.24
2024-01-15T11:30:14.800Z,24.79
2024-01-15T11:32:44.183Z,25.01
2024-01-15T11:35:13.006Z,25.34
2024-01-15T11:37:59.531Z,25.00
2024-01-15T11:40:43.748Z,25.81
2024-01-15T11:43:14.364Z,25.11
2024-01-15T11:45:44.340Z,25.29
2024-01-15T11:48:14.503Z,25.71
2024-01-15T11:50:44.295Z,25.55
2024-01-15T11:53:30.021Z,25.80
2024-01-15T11:56:00.409Z,25.91
2024-01-15T11:58:28.574Z,25.95
2024-01-15T12:00:58.472Z,26.24
2024-01-15T12:03:26.810Z,26.33
2024-01-15T12:05:55.168Z,26.27
2024-01-15T12:08:24.096Z,26.78
2024-01-15T12:10:52.603Z,26.53
2024-01-15T12:13:20.870Z,26.77
2024-01-15T12:15:49.907Z,26.64
2024-01-15T12:18:21.091Z,26.82
2024-01-15T12:20:49.935Z,26.70
2024-01-15T12:23:19.159Z,26.53
2024-01-15T12:25:48.234Z,26.92
2024-01-15T12:28:16.853Z,26.41
2024-01-15T12:30:45.939Z,26.71
2024-01-15T12:33:14.309Z,26.94
2024-01-15T12:35:43.977Z,27.04
2024-01-15T12:38:13.707Z,26.90
2024-01-15T12:40:42.132Z,26.97
2024-01-15T12:43:10.805Z,26.95
2024-01-15T12:45:39.400Z,26.51
2024-01-15T12:48:08.451Z,27.03
2024-01-15T12:50:36.850Z,26.59
2024-01-15T12:53:06.745Z,27.17
2024-01-15T12:55:35.741Z,26.89
2024-01-15T12:58:04.004Z,26.82
2024-01-15T13:00:32.200Z,26.97
2024-01-15T13:03:01.937Z,26.93
2024-01-15T13:05:30.328Z,27.17
2024-01-15T13:07:58.950Z,26.96
2024-01-15T13:10:31.122Z,26.87
2024-01-15T13:12:59.382Z,26.91
2024-01-15T13:15:29.762Z,26.61
2024-01-15T13:17:58.391Z,27.17
2024-01-15T13:20:26.734Z,26.87
2024-01-15T13:22:54.987Z,26.85
2024-01-15T13:25:23.265Z,26.72
2024-01-15T13:27:53.095Z,27.05
2024-01-15T13:30:21.805Z,27.12
2024-01-15T13:32:50.162Z,26.46
2024-01-15T13:35:18.427Z,26.89
2024-01-15T13:37:46.923Z,26.62
2024-01-15T13:40:18.297Z,27.10
2024-01-15T13:42:48.526Z,27.08
2024-01-15T13:45:18.866Z,26.89
2024-01-15T13:47:47.238Z,26.52
2024-01-15T13:50:15.686Z,26.74
2024-01-15T13:52:43.873Z,27.09
2024-01-15T13:55:12.099Z,26.89
2024-01-15T13:57:40.394Z,26.56
2024-01-15T14:00:13.222Z,26.81
2024-01-15T14:02:43.855Z,27.33
2024-01-15T14:05:13.987Z,27.05
2024-01-15T14:07:42.803Z,26.59
2024-01-15T14:10:11.952Z,26.99
2024-01-15T14:12:40.928Z,26.94
2024-01-15T14:15:10.259Z,26.92
2024-01-15T14:17:38.597Z,27.15
2024-01-15T14:20:11.308Z,26.74
2024-01-15T14:22:39.621Z,27.14
2024-01-15T14:25:08.473Z,27.04
2024-01-15T14:27:37.573Z,26.94
2024-01-15T14:30:09.702Z,26.78
2024-01-15T14:32:38.281Z,27.05
2024-01-15T14:35:09.646Z,26.83
2024-01-15T14:37:38.053Z,27.26
2024-01-15T14:40:08.828Z,26.64
2024-01-15T14:42:37.876Z,26.60
2024-01-15T14:45:12.820Z,27.07
2024-01-15T14:47:41.367Z,26.26
2024-01-15T14:50:13.518Z,26.62
2024-01-15T14:52:43.206Z,26.62
2024-01-15T14:55:11.830Z,26.68
2024-01-15T14:57:40.108Z,26.76
2024-01-15T15:00:10.396Z,26.90
2024-01-15T15:02:38.939Z,26.49
2024-01-15T15:05:08.365Z,27.02
2024-01-15T15:07:38.549Z,26.89
2024-01-15T15:10:07.900Z,27.31
2024-01-15T15:12:36.417Z,27.30
2024-01-15T15:15:09.274Z,27.04
2024-01-15T15:17:40.151Z,26.88
2024-01-15T15:20:09.924Z,26.79
2024-01-15T15:22:39.771Z,27.18
2024-01-15T15:25:09.801Z,27.02
2024-01-15T15:27:38.831Z,27.24
2024-01-15T15:30:08.514Z,27.15
2024-01-15T15:32:36.794Z,26.57
2024-01-15T15:35:05.641Z,27.00
2024-01-15T15:37:34.034Z,26.93
2024-01-15T15:40:04.211Z,27.30
2024-01-15T15:42:32.466Z,26.90
2024-01-15T15:45:02.844Z,26.88
2024-01-15T15:47:31.645Z,27.30
2024-01-15T15:49:59.986Z,26.68
2024-01-15T15:52:28.275Z,27.02
2024-01-15T15:54:56.579Z,27.02
2024-01-15T15:57:27.385Z,27.34
2024-01-15T15:59:56.072Z,26.68
2024-01-15T16:02:24.310Z,27.17
2024-01-15T16:04:52.637Z,26.92
2024-01-15T16:07:21.129Z,27.21
2024-01-15T16:09:49.401Z,26.73
2024-01-15T16:12:17.651Z,26.83
2024-01-15T16:14:47.959Z,26.94
2024-01-15T16:23:15.008Z,26.83
2024-01-15T16:23:28.765Z,26.85
2024-01-15T16:23:44.295Z,26.89
2024-01-15T16:25:41.783Z,27.13
2024-01-15T16:28:11.172Z,26.48
2024-01-15T16:30:45.381Z,26.91
2024-01-15T16:33:15.827Z,27.05
2024-01-15T16:35:44.269Z,26.67
2024-01-15T16:38:13.050Z,26.78
2024-01-15T16:40:41.500Z,26.86
2024-01-15T16:43:10.233Z,27.03
2024-01-15T16:45:40.841Z,26.99
2024-01-15T16:48:09.485Z,26.77
2024-01-15T16:50:37.923Z,26.96
2024-01-15T16:53:06.480Z,27.13
2024-01-15T16:55:34.698Z,26.48
2024-01-15T16:58:04.789Z,26.69
2024-01-15T17:00:33.068Z,26.74
2024-01-15T17:03:02.857Z,26.77
2024-01-15T17:05:31.216Z,26.81
2024-01-15T17:07:59.507Z,27.02
2024-01-15T17:10:27.869Z,26.52
2024-01-15T17:12:56.191Z,26.62
2024-01-15T17:15:24.391Z,26.93
2024-01-15T17:17:52.834Z,26.32
2024-01-15T17:20:22.534Z,26.65
2024-01-15T17:22:50.935Z,26.59
2024-01-15T17:25:19.117Z,26.72
2024-01-15T17:27:47.686Z,26.64
2024-01-15T17:30:16.376Z,26.59
2024-01-15T17:32:44.653Z,26.77
2024-01-15T17:35:13.047Z,26.92
2024-01-15T17:37:42.616Z,26.83
2024-01-15T17:40:11.672Z,26.95
2024-01-15T17:42:39.828Z,26.73
2024-01-15T17:45:08.878Z,26.83
2024-01-15T17:47:37.122Z,26.79
2024-01-15T17:50:05.943Z,26.86
2024-01-15T17:52:34.208Z,27.14
2024-01-15T17:55:03.987Z,26.58
2024-01-15T17:57:32.172Z,27.02
2024-01-15T18:00:00.463Z,27.01
2024-01-15T18:02:29.102Z,27.10
2024-01-15T18:04:57.512Z,27.22
2024-01-15T18:07:25.781Z,26.79
2024-01-15T18:09:53.955Z,26.89
2024-01-15T18:12:23.552Z,26.58
2024-01-15T18:14:51.741Z,26.84
2024-01-15T18:17:21.948Z,26.86
2024-01-15T18:19:50.227Z,26.76
2024-01-15T18:22:18.492Z,26.68
2024-01-15T18:24:47.268Z,26.82
2024-01-15T18:27:15.412Z,26.94
2024-01-15T18:29:45.127Z,27.09
2024-01-15T18:32:13.519Z,26.84
2024-01-15T18:34:42.863Z,26.84
2024-01-15T18:37:11.176Z,26.82
2024-01-15T18:39:39.353Z,27.06
2024-01-15T18:42:07.548Z,26.68
2024-01-15T18:44:35.927Z,26.81
2024-01-15T18:47:05.934Z,27.05
2024-01-15T18:49:34.220Z,28.19
2024-01-15T18:52:02.427Z,29.21
2024-01-15T18:54:30.625Z,28.96
2024-01-15T18:56:58.821Z,28.87
2024-01-15T18:59:27.107Z,28.67
2024-01-15T19:01:55.380Z,29.18
2024-01-15T19:04:25.819Z,29.21
2024-01-15T19:06:54.093Z,29.10
2024-01-15T19:09:22.297Z,29.28
2024-01-15T19:11:50.532Z,29.00
2024-01-15T19:14:18.944Z,28.93
2024-01-15T19:16:47.594Z,29.17
2024-01-15T19:19:15.815Z,29.41
2024-01-15T19:21:47.528Z,29.08
2024-01-15T19:24:16.927Z,29.01
2024-01-15T19:26:45.140Z,29.04
2024-01-15T19:29:13.448Z,28.86
2024-01-15T19:31:41.618Z,29.24
2024-01-15T19:34:10.328Z,28.78
2024-01-15T19:36:38.555Z,29.25
2024-01-15T19:39:10.629Z,29.12
2024-01-15T19:41:38.962Z,28.61
2024-01-15T19:44:08.314Z,28.99
2024-01-15T19:46:36.491Z,28.67
2024-01-15T19:49:04.785Z,28.94
2024-01-15T19:51:33.045Z,28.85
2024-01-15T19:54:01.311Z,28.58
2024-01-15T19:56:30.941Z,28.37
2024-01-15T19:58:59.161Z,28.48
2024-01-15T20:01:27.416Z,28.67
2024-01-15T20:03:55.631Z,28.10
2024-01-15T20:06:24.771Z,28.46
2024-01-15T20:08:54.378Z,28.43
2024-01-15T20:11:22.625Z,28.10
2024-01-15T20:13:52.255Z,28.59
2024-01-15T20:16:20.411Z,28.40
2024-01-15T20:18:49.165Z,27.99
2024-01-15T20:21:17.713Z,28.29
2024-01-15T20:23:54.676Z,28.00
2024-01-15T20:26:27.000Z,28.29
2024-01-15T20:28:56.923Z,27.73
2024-01-15T20:31:25.106Z,28.16
2024-01-15T20:33:53.324Z,27.93
2024-01-15T20:36:21.614Z,27.98
2024-01-15T20:38:49.806Z,27.60
2024-01-15T20:41:18.443Z,27.85
2024-01-15T20:43:46.657Z,27.68
2024-01-15T20:46:16.276Z,28.17
2024-01-15T20:48:44.731Z,27.81
2024-01-15T20:51:12.903Z,27.75
2024-01-15T20:53:42.107Z,27.94
2024-01-15T20:56:11.000Z,27.40
2024-01-15T20:58:39.291Z,27.70
2024-01-15T21:01:08.052Z,27.74
2024-01-15T21:03:37.728Z,27.85
2024-01-15T21:06:06.252Z,27.56
2024-01-15T21:08:34.754Z,27.79
2024-01-15T21:11:05.299Z,27.22
2024-01-15T21:13:34.575Z,27.63
2024-01-15T21:16:03.201Z,27.88
2024-01-15T21:18:31.560Z,27.59
2024-01-15T21:21:01.534Z,27.30
2024-01-15T21:23:31.281Z,27.37
2024-01-15T21:26:00.871Z,27.46
2024-01-15T21:28:31.334Z,27.34
2024-01-15T21:31:00.744Z,27.43
2024-01-15T21:33:33.153Z,27.72
2024-01-15T21:36:04.058Z,27.11
2024-01-15T21:38:32.428Z,27.38
2024-01-15T21:41:00.823Z,27.57
2024-01-15T21:43:29.166Z,27.43
2024-01-15T21:45:57.629Z,27.34
2024-01-15T21:48:26.134Z,27.66
2024-01-15T21:50:55.290Z,27.67
2024-01-15T21:53:25.325Z,27.20
2024-01-15T21:55:53.884Z,27.57
2024-01-15T21:58:22.184Z,27.19
2024-01-15T22:00:50.657Z,27.20
2024-01-15T22:03:19.128Z,27.02
2024-01-15T22:05:47.988Z,27.15
2024-01-15T22:08:16.579Z,27.70
2024-01-15T22:10:46.230Z,27.29
2024-01-15T22:13:14.632Z,27.34
2024-01-15T22:15:43.572Z,27.25
2024-01-15T22:18:12.273Z,27.23
2024-01-15T22:20:41.087Z,27.65
2024-01-15T22:23:10.627Z,27.04
2024-01-15T22:25:39.074Z,27.68
2024-01-15T22:28:09.290Z,27.58
2024-01-15T22:30:37.672Z,27.18
2024-01-15T22:33:06.237Z,27.35
2024-01-15T22:35:34.632Z,27.28
2024-01-15T22:38:02.966Z,27.21
2024-01-15T22:40:32.841Z,27.18
2024-01-15T22:43:01.043Z,26.91
2024-01-15T22:45:30.677Z,27.62
2024-01-15T22:47:59.102Z,27.09
2024-01-15T22:50:27.505Z,27.60
2024-01-15T22:52:55.696Z,27.34
2024-01-15T22:55:23.817Z,26.98
2024-01-15T22:57:52.016Z,27.46
2024-01-15T23:00:20.766Z,27.05
2024-01-15T23:02:50.939Z,27.08
2024-01-15T23:05:19.527Z,26.92
2024-01-15T23:07:48.481Z,27.15
2024-01-15T23:10:16.808Z,27.13
2024-01-15T23:12:44.966Z,26.94
2024-01-15T23:15:13.258Z,27.44
2024-01-15T23:17:41.921Z,27.16
2024-01-15T23:20:13.497Z,27.52
2024-01-15T23:22:41.996Z,27.52
2024-01-15T23:25:10.871Z,27.41
2024-01-15T23:27:39.206Z,27.44
2024-01-15T23:30:08.879Z,26.98
2024-01-15T23:32:37.177Z,27.41
2024-01-15T23:35:06.537Z,27.32
2024-01-15T23:37:36.194Z,26.90
2024-01-15T23:40:05.853Z,26.81
2024-01-15T23:42:34.254Z,26.82
2024-01-15T23:45:02.506Z,27.35
2024-01-15T23:47:30.811Z,27.08
2024-01-15T23:49:59.080Z,27.07
2024-01-15T23:52:27.621Z,27.38
2024-01-15T23:54:57.258Z,26.82
2024-01-15T23:57:25.920Z,26.99
2024-01-15T23:59:54.072Z,26.89
